sensor_id;sensor_type;location;lat;lon;timestamp;pressure;altitude;pressure_sealevel;temperature;humidity
51926;BME280;37952;51.938;15.480;2023-07-09T00:02:11;100277.04;;;23.71;36.58
51926;BME280;37952;51.938;15.480;2023-07-09T00:05:16;100282.27;;;23.66;36.66
51926;BME280;37952;51.938;15.480;2023-07-09T00:08:29;100284.59;;;23.61;36.83
51926;BME280;37952;51.938;15.480;2023-07-09T00:11:33;100282.52;;;23.55;36.79
51926;BME280;37952;51.938;15.480;2023-07-09T00:14:35;100279.61;;;23.50;37.13
51926;BME280;37952;51.938;15.480;2023-07-09T00:17:40;100282.29;;;23.42;37.18
51926;BME280;37952;51.938;15.480;2023-07-09T00:20:43;100280.20;;;23.36;37.45
51926;BME280;37952;51.938;15.480;2023-07-09T00:23:46;100282.35;;;23.32;37.54
51926;BME280;37952;51.938;15.480;2023-07-09T00:26:51;100284.98;;;23.27;37.53
51926;BME280;37952;51.938;15.480;2023-07-09T00:29:54;100292.11;;;23.22;37.53
51926;BME280;37952;51.938;15.480;2023-07-09T00:32:57;100287.26;;;23.18;37.60
51926;BME280;37952;51.938;15.480;2023-07-09T00:36:00;100281.68;;;23.12;37.78
51926;BME280;37952;51.938;15.480;2023-07-09T00:39:04;100280.58;;;23.03;37.76
51926;BME280;37952;51.938;15.480;2023-07-09T00:42:16;100278.29;;;23.01;37.76
51926;BME280;37952;51.938;15.480;2023-07-09T00:45:25;100277.36;;;23.00;37.70
51926;BME280;37952;51.938;15.480;2023-07-09T00:48:28;100276.67;;;22.96;37.82
51926;BME280;37952;51.938;15.480;2023-07-09T00:51:40;100275.06;;;22.85;38.07
51926;BME280;37952;51.938;15.480;2023-07-09T00:54:45;100271.63;;;22.77;38.08
51926;BME280;37952;51.938;15.480;2023-07-09T00:57:53;100268.99;;;22.75;38.17
51926;BME280;37952;51.938;15.480;2023-07-09T01:01:02;100270.88;;;22.74;38.19
51926;BME280;37952;51.938;15.480;2023-07-09T01:04:07;100273.47;;;22.66;38.11
51926;BME280;37952;51.938;15.480;2023-07-09T01:07:11;100269.70;;;22.61;38.28
51926;BME280;37952;51.938;15.480;2023-07-09T01:10:17;100268.52;;;22.53;38.64
51926;BME280;37952;51.938;15.480;2023-07-09T01:13:21;100265.83;;;22.44;38.58
51926;BME280;37952;51.938;15.480;2023-07-09T01:16:27;100257.66;;;22.34;38.99
51926;BME280;37952;51.938;15.480;2023-07-09T01:19:38;100261.63;;;22.27;39.05
51926;BME280;37952;51.938;15.480;2023-07-09T01:22:48;100259.16;;;22.21;39.08
51926;BME280;37952;51.938;15.480;2023-07-09T01:25:52;100260.47;;;22.18;38.97
51926;BME280;37952;51.938;15.480;2023-07-09T01:28:56;100251.47;;;22.17;39.07
51926;BME280;37952;51.938;15.480;2023-07-09T01:31:59;100260.51;;;22.15;39.05
51926;BME280;37952;51.938;15.480;2023-07-09T01:35:04;100264.48;;;22.15;39.04
51926;BME280;37952;51.938;15.480;2023-07-09T01:38:09;100264.67;;;22.12;39.13
51926;BME280;37952;51.938;15.480;2023-07-09T01:41:12;100261.42;;;22.07;39.21
51926;BME280;37952;51.938;15.480;2023-07-09T01:44:16;100264.86;;;22.07;39.26
51926;BME280;37952;51.938;15.480;2023-07-09T01:47:20;100262.48;;;22.06;39.49
51926;BME280;37952;51.938;15.480;2023-07-09T01:50:23;100261.33;;;22.03;39.64
51926;BME280;37952;51.938;15.480;2023-07-09T01:53:27;100260.73;;;22.00;39.46
51926;BME280;37952;51.938;15.480;2023-07-09T01:56:33;100256.27;;;21.93;39.77
51926;BME280;37952;51.938;15.480;2023-07-09T01:59:37;100260.48;;;21.90;39.94
51926;BME280;37952;51.938;15.480;2023-07-09T02:02:45;100259.54;;;21.85;40.04
51926;BME280;37952;51.938;15.480;2023-07-09T02:05:49;100264.73;;;21.82;40.20
51926;BME280;37952;51.938;15.480;2023-07-09T02:08:54;100265.67;;;21.77;40.24
51926;BME280;37952;51.938;15.480;2023-07-09T02:11:57;100264.28;;;21.73;40.50
51926;BME280;37952;51.938;15.480;2023-07-09T02:14:59;100266.14;;;21.70;40.81
51926;BME280;37952;51.938;15.480;2023-07-09T02:18:02;100269.30;;;21.66;40.98
51926;BME280;37952;51.938;15.480;2023-07-09T02:21:05;100268.67;;;21.63;41.01
51926;BME280;37952;51.938;15.480;2023-07-09T02:24:08;100267.52;;;21.59;41.33
51926;BME280;37952;51.938;15.480;2023-07-09T02:27:15;100269.60;;;21.55;41.67
51926;BME280;37952;51.938;15.480;2023-07-09T02:30:17;100270.25;;;21.56;41.68
51926;BME280;37952;51.938;15.480;2023-07-09T02:33:20;100269.60;;;21.54;41.90
51926;BME280;37952;51.938;15.480;2023-07-09T02:36:24;100271.38;;;21.50;42.06
51926;BME280;37952;51.938;15.480;2023-07-09T02:39:27;100273.53;;;21.48;42.14
51926;BME280;37952;51.938;15.480;2023-07-09T02:42:30;100271.72;;;21.47;42.26
51926;BME280;37952;51.938;15.480;2023-07-09T02:45:33;100269.05;;;21.44;42.37
51926;BME280;37952;51.938;15.480;2023-07-09T02:48:36;100269.13;;;21.44;42.72
51926;BME280;37952;51.938;15.480;2023-07-09T02:51:39;100269.33;;;21.40;42.86
51926;BME280;37952;51.938;15.480;2023-07-09T02:54:41;100269.31;;;21.36;42.96
51926;BME280;37952;51.938;15.480;2023-07-09T02:57:45;100266.41;;;21.35;43.04
51926;BME280;37952;51.938;15.480;2023-07-09T03:00:49;100265.77;;;21.32;43.30
51926;BME280;37952;51.938;15.480;2023-07-09T03:03:55;100264.27;;;21.29;43.58
51926;BME280;37952;51.938;15.480;2023-07-09T03:06:59;100263.13;;;21.26;44.29
51926;BME280;37952;51.938;15.480;2023-07-09T03:10:02;100262.27;;;21.26;44.44
51926;BME280;37952;51.938;15.480;2023-07-09T03:13:05;100265.30;;;21.28;44.33
51926;BME280;37952;51.938;15.480;2023-07-09T03:16:08;100264.22;;;21.31;44.73
51926;BME280;37952;51.938;15.480;2023-07-09T03:19:11;100265.16;;;21.35;44.49
51926;BME280;37952;51.938;15.480;2023-07-09T03:22:14;100267.70;;;21.38;44.42
51926;BME280;37952;51.938;15.480;2023-07-09T03:25:17;100270.23;;;21.40;44.50
51926;BME280;37952;51.938;15.480;2023-07-09T03:28:20;100269.55;;;21.40;44.45
51926;BME280;37952;51.938;15.480;2023-07-09T03:31:23;100274.65;;;21.42;44.57
51926;BME280;37952;51.938;15.480;2023-07-09T03:34:26;100274.48;;;21.44;44.83
51926;BME280;37952;51.938;15.480;2023-07-09T03:37:29;100276.91;;;21.43;44.73
51926;BME280;37952;51.938;15.480;2023-07-09T03:40:32;100276.07;;;21.42;44.92
51926;BME280;37952;51.938;15.480;2023-07-09T03:43:35;100277.98;;;21.45;45.07
51926;BME280;37952;51.938;15.480;2023-07-09T03:46:38;100279.95;;;21.48;45.16
51926;BME280;37952;51.938;15.480;2023-07-09T03:49:41;100279.50;;;21.53;45.12
51926;BME280;37952;51.938;15.480;2023-07-09T03:52:44;100281.64;;;21.55;45.02
51926;BME280;37952;51.938;15.480;2023-07-09T03:55:52;100282.36;;;21.57;45.41
51926;BME280;37952;51.938;15.480;2023-07-09T03:58:55;100285.52;;;21.56;45.34
51926;BME280;37952;51.938;15.480;2023-07-09T04:01:57;100286.55;;;21.58;45.24
51926;BME280;37952;51.938;15.480;2023-07-09T04:05:00;100285.95;;;21.63;45.15
51926;BME280;37952;51.938;15.480;2023-07-09T04:08:04;100284.98;;;21.63;45.15
51926;BME280;37952;51.938;15.480;2023-07-09T04:11:07;100291.87;;;21.66;45.12
51926;BME280;37952;51.938;15.480;2023-07-09T04:14:10;100292.42;;;21.68;45.41
51926;BME280;37952;51.938;15.480;2023-07-09T04:17:13;100294.52;;;21.70;45.47
51926;BME280;37952;51.938;15.480;2023-07-09T04:20:16;100299.21;;;21.73;45.32
51926;BME280;37952;51.938;15.480;2023-07-09T04:23:19;100298.71;;;21.77;45.45
51926;BME280;37952;51.938;15.480;2023-07-09T04:26:22;100300.08;;;21.80;45.48
51926;BME280;37952;51.938;15.480;2023-07-09T04:29:26;100296.79;;;21.82;45.53
51926;BME280;37952;51.938;15.480;2023-07-09T04:32:28;100297.90;;;21.85;45.42
51926;BME280;37952;51.938;15.480;2023-07-09T04:35:32;100306.14;;;21.89;45.41
51926;BME280;37952;51.938;15.480;2023-07-09T04:38:34;100311.48;;;21.93;45.33
51926;BME280;37952;51.938;15.480;2023-07-09T04:41:37;100311.53;;;21.96;45.30
51926;BME280;37952;51.938;15.480;2023-07-09T04:44:40;100309.02;;;21.98;45.49
51926;BME280;37952;51.938;15.480;2023-07-09T04:47:44;100321.20;;;21.98;45.34
51926;BME280;37952;51.938;15.480;2023-07-09T04:50:46;100324.77;;;22.01;45.42
51926;BME280;37952;51.938;15.480;2023-07-09T04:53:53;100331.23;;;22.04;45.44
51926;BME280;37952;51.938;15.480;2023-07-09T04:56:56;100335.30;;;22.05;45.66
51926;BME280;37952;51.938;15.480;2023-07-09T04:59:59;100336.95;;;22.03;45.76
51926;BME280;37952;51.938;15.480;2023-07-09T05:03:02;100334.38;;;22.05;45.94
51926;BME280;37952;51.938;15.480;2023-07-09T05:06:05;100338.23;;;22.06;46.06
51926;BME280;37952;51.938;15.480;2023-07-09T05:09:08;100335.67;;;22.06;45.96
51926;BME280;37952;51.938;15.480;2023-07-09T05:12:11;100338.60;;;22.11;46.01
51926;BME280;37952;51.938;15.480;2023-07-09T05:15:14;100331.73;;;22.15;45.94
51926;BME280;37952;51.938;15.480;2023-07-09T05:18:17;100325.56;;;22.18;46.02
51926;BME280;37952;51.938;15.480;2023-07-09T05:21:21;100332.30;;;22.18;46.04
51926;BME280;37952;51.938;15.480;2023-07-09T05:24:24;100329.48;;;22.19;46.39
51926;BME280;37952;51.938;15.480;2023-07-09T05:27:30;100327.17;;;22.20;46.35
51926;BME280;37952;51.938;15.480;2023-07-09T05:30:33;100328.69;;;22.21;46.54
51926;BME280;37952;51.938;15.480;2023-07-09T05:33:35;100329.90;;;22.21;46.74
51926;BME280;37952;51.938;15.480;2023-07-09T05:36:39;100328.00;;;22.24;46.67
51926;BME280;37952;51.938;15.480;2023-07-09T05:39:42;100325.64;;;22.28;46.39
51926;BME280;37952;51.938;15.480;2023-07-09T05:42:45;100328.73;;;22.31;46.52
51926;BME280;37952;51.938;15.480;2023-07-09T05:45:48;100332.90;;;22.36;46.70
51926;BME280;37952;51.938;15.480;2023-07-09T05:48:50;100336.90;;;22.39;46.49
51926;BME280;37952;51.938;15.480;2023-07-09T05:51:53;100330.77;;;22.43;46.61
51926;BME280;37952;51.938;15.480;2023-07-09T05:54:56;100333.08;;;22.46;46.72
51926;BME280;37952;51.938;15.480;2023-07-09T05:57:59;100337.42;;;22.50;46.80
51926;BME280;37952;51.938;15.480;2023-07-09T06:01:02;100335.77;;;22.52;46.63
51926;BME280;37952;51.938;15.480;2023-07-09T06:04:05;100336.02;;;22.56;46.47
51926;BME280;37952;51.938;15.480;2023-07-09T06:07:09;100336.05;;;22.62;46.37
51926;BME280;37952;51.938;15.480;2023-07-09T06:10:12;100334.11;;;22.67;46.33
51926;BME280;37952;51.938;15.480;2023-07-09T06:13:16;100333.27;;;22.72;46.43
51926;BME280;37952;51.938;15.480;2023-07-09T06:16:19;100337.30;;;22.76;46.35
51926;BME280;37952;51.938;15.480;2023-07-09T06:19:22;100343.74;;;22.80;46.36
51926;BME280;37952;51.938;15.480;2023-07-09T06:22:26;100341.15;;;22.84;46.49
51926;BME280;37952;51.938;15.480;2023-07-09T06:25:28;100348.17;;;22.87;46.50
51926;BME280;37952;51.938;15.480;2023-07-09T06:28:32;100350.27;;;22.92;46.62
51926;BME280;37952;51.938;15.480;2023-07-09T06:31:35;100343.52;;;22.96;46.53
51926;BME280;37952;51.938;15.480;2023-07-09T06:34:40;100344.59;;;23.00;46.36
51926;BME280;37952;51.938;15.480;2023-07-09T06:37:43;100343.34;;;23.03;46.29
51926;BME280;37952;51.938;15.480;2023-07-09T06:40:46;100337.77;;;23.08;46.41
51926;BME280;37952;51.938;15.480;2023-07-09T06:43:49;100335.36;;;23.12;46.62
51926;BME280;37952;51.938;15.480;2023-07-09T06:46:52;100335.48;;;23.16;46.49
51926;BME280;37952;51.938;15.480;2023-07-09T06:49:55;100339.64;;;23.23;46.53
51926;BME280;37952;51.938;15.480;2023-07-09T06:52:58;100340.98;;;23.28;46.59
51926;BME280;37952;51.938;15.480;2023-07-09T06:56:02;100341.16;;;23.33;46.50
51926;BME280;37952;51.938;15.480;2023-07-09T06:59:06;100344.86;;;23.39;46.55
51926;BME280;37952;51.938;15.480;2023-07-09T07:02:09;100349.47;;;23.47;46.88
51926;BME280;37952;51.938;15.480;2023-07-09T07:05:12;100352.42;;;23.53;46.56
51926;BME280;37952;51.938;15.480;2023-07-09T07:08:17;100354.60;;;23.58;46.82
51926;BME280;37952;51.938;15.480;2023-07-09T07:11:20;100352.54;;;23.62;46.63
51926;BME280;37952;51.938;15.480;2023-07-09T07:14:27;100352.94;;;23.65;46.60
51926;BME280;37952;51.938;15.480;2023-07-09T07:17:30;100349.11;;;23.67;46.82
51926;BME280;37952;51.938;15.480;2023-07-09T07:20:34;100350.60;;;23.70;46.85
51926;BME280;37952;51.938;15.480;2023-07-09T07:23:37;100349.81;;;23.73;47.04
51926;BME280;37952;51.938;15.480;2023-07-09T07:26:40;100351.66;;;23.75;46.97
51926;BME280;37952;51.938;15.480;2023-07-09T07:29:42;100352.35;;;23.77;46.79
51926;BME280;37952;51.938;15.480;2023-07-09T07:32:47;100348.60;;;23.80;46.52
51926;BME280;37952;51.938;15.480;2023-07-09T07:35:51;100346.72;;;23.86;46.81
51926;BME280;37952;51.938;15.480;2023-07-09T07:39:14;100357.15;;;23.91;46.77
51926;BME280;37952;51.938;15.480;2023-07-09T07:42:18;100356.23;;;23.95;46.53
51926;BME280;37952;51.938;15.480;2023-07-09T07:45:22;100354.94;;;23.99;46.40
51926;BME280;37952;51.938;15.480;2023-07-09T07:48:25;100355.05;;;24.03;46.43
51926;BME280;37952;51.938;15.480;2023-07-09T07:51:27;100353.98;;;24.08;46.35
51926;BME280;37952;51.938;15.480;2023-07-09T07:54:30;100351.98;;;24.13;46.25
51926;BME280;37952;51.938;15.480;2023-07-09T07:57:36;100353.88;;;24.18;46.12
51926;BME280;37952;51.938;15.480;2023-07-09T08:00:39;100353.52;;;24.24;46.22
51926;BME280;37952;51.938;15.480;2023-07-09T08:03:42;100355.55;;;24.28;45.86
51926;BME280;37952;51.938;15.480;2023-07-09T08:06:45;100360.35;;;24.32;45.80
51926;BME280;37952;51.938;15.480;2023-07-09T08:09:48;100361.79;;;24.37;45.69
51926;BME280;37952;51.938;15.480;2023-07-09T08:12:51;100363.10;;;24.43;45.37
51926;BME280;37952;51.938;15.480;2023-07-09T08:15:59;100365.69;;;24.51;45.24
51926;BME280;37952;51.938;15.480;2023-07-09T08:19:03;100364.23;;;24.63;45.24
51926;BME280;37952;51.938;15.480;2023-07-09T08:22:05;100360.83;;;24.76;45.09
51926;BME280;37952;51.938;15.480;2023-07-09T08:25:08;100359.86;;;24.79;44.74
51926;BME280;37952;51.938;15.480;2023-07-09T08:28:11;100358.95;;;24.83;44.61
51926;BME280;37952;51.938;15.480;2023-07-09T08:31:14;100360.83;;;24.87;44.36
51926;BME280;37952;51.938;15.480;2023-07-09T08:34:17;100354.75;;;24.88;43.83
51926;BME280;37952;51.938;15.480;2023-07-09T08:37:19;100357.96;;;24.95;43.38
51926;BME280;37952;51.938;15.480;2023-07-09T08:40:23;100353.22;;;24.97;43.16
51926;BME280;37952;51.938;15.480;2023-07-09T08:47:05;100356.45;;;25.02;42.57
51926;BME280;37952;51.938;15.480;2023-07-09T08:50:14;100355.86;;;25.04;42.22
51926;BME280;37952;51.938;15.480;2023-07-09T08:53:28;100356.64;;;25.07;42.11
51926;BME280;37952;51.938;15.480;2023-07-09T08:56:34;100357.61;;;25.10;41.90
51926;BME280;37952;51.938;15.480;2023-07-09T08:59:37;100354.95;;;25.12;41.75
51926;BME280;37952;51.938;15.480;2023-07-09T09:02:50;100354.95;;;25.16;41.78
51926;BME280;37952;51.938;15.480;2023-07-09T09:05:54;100354.33;;;25.20;41.75
51926;BME280;37952;51.938;15.480;2023-07-09T09:13:05;100361.73;;;25.27;41.25
51926;BME280;37952;51.938;15.480;2023-07-09T09:16:25;100352.30;;;25.31;40.74
51926;BME280;37952;51.938;15.480;2023-07-09T09:19:38;100354.56;;;25.32;40.72
51926;BME280;37952;51.938;15.480;2023-07-09T09:22:48;100360.44;;;25.36;40.21
51926;BME280;37952;51.938;15.480;2023-07-09T09:25:55;100359.01;;;25.39;39.80
51926;BME280;37952;51.938;15.480;2023-07-09T09:29:15;100355.61;;;25.42;39.48
51926;BME280;37952;51.938;15.480;2023-07-09T09:32:25;100352.84;;;25.46;39.16
51926;BME280;37952;51.938;15.480;2023-07-09T09:35:31;100350.85;;;25.50;38.96
51926;BME280;37952;51.938;15.480;2023-07-09T09:38:35;100352.92;;;25.56;38.58
51926;BME280;37952;51.938;15.480;2023-07-09T09:41:39;100358.63;;;25.60;38.48
51926;BME280;37952;51.938;15.480;2023-07-09T09:44:43;100360.75;;;25.65;37.63
51926;BME280;37952;51.938;15.480;2023-07-09T09:47:47;100363.68;;;25.70;37.82
51926;BME280;37952;51.938;15.480;2023-07-09T09:50:51;100362.44;;;25.73;37.43
51926;BME280;37952;51.938;15.480;2023-07-09T09:53:59;100354.02;;;25.73;37.19
51926;BME280;37952;51.938;15.480;2023-07-09T09:57:03;100358.67;;;25.83;37.15
51926;BME280;37952;51.938;15.480;2023-07-09T10:00:28;100358.75;;;25.90;36.70
51926;BME280;37952;51.938;15.480;2023-07-09T10:03:35;100362.02;;;25.96;37.22
51926;BME280;37952;51.938;15.480;2023-07-09T10:06:42;100359.77;;;26.00;36.93
51926;BME280;37952;51.938;15.480;2023-07-09T10:09:50;100361.13;;;26.06;36.97
51926;BME280;37952;51.938;15.480;2023-07-09T10:13:00;100361.64;;;26.09;36.92
51926;BME280;37952;51.938;15.480;2023-07-09T10:16:09;100354.19;;;26.12;36.74
51926;BME280;37952;51.938;15.480;2023-07-09T10:19:19;100352.88;;;26.17;36.67
51926;BME280;37952;51.938;15.480;2023-07-09T10:22:36;100350.64;;;26.17;36.79
51926;BME280;37952;51.938;15.480;2023-07-09T10:29:42;100349.09;;;26.27;36.27
51926;BME280;37952;51.938;15.480;2023-07-09T10:33:13;100350.83;;;26.35;36.13
51926;BME280;37952;51.938;15.480;2023-07-09T10:36:34;100353.17;;;26.46;35.49
51926;BME280;37952;51.938;15.480;2023-07-09T10:39:46;100349.94;;;26.52;35.11
51926;BME280;37952;51.938;15.480;2023-07-09T10:42:56;100350.70;;;26.56;35.03
51926;BME280;37952;51.938;15.480;2023-07-09T10:46:11;100352.52;;;26.58;34.93
51926;BME280;37952;51.938;15.480;2023-07-09T10:49:15;100350.85;;;26.58;34.94
51926;BME280;37952;51.938;15.480;2023-07-09T10:52:29;100337.65;;;26.57;34.76
51926;BME280;37952;51.938;15.480;2023-07-09T10:55:47;100344.55;;;26.61;34.81
51926;BME280;37952;51.938;15.480;2023-07-09T10:59:13;100342.88;;;26.63;34.79
51926;BME280;37952;51.938;15.480;2023-07-09T11:02:25;100341.73;;;26.70;34.51
51926;BME280;37952;51.938;15.480;2023-07-09T11:05:30;100341.91;;;26.77;34.46
51926;BME280;37952;51.938;15.480;2023-07-09T11:08:38;100351.25;;;26.85;33.92
51926;BME280;37952;51.938;15.480;2023-07-09T11:11:45;100345.73;;;26.91;33.83
51926;BME280;37952;51.938;15.480;2023-07-09T11:14:55;100342.27;;;26.95;34.00
51926;BME280;37952;51.938;15.480;2023-07-09T11:17:59;100341.56;;;27.00;34.18
51926;BME280;37952;51.938;15.480;2023-07-09T11:21:16;100336.54;;;26.99;34.34
51926;BME280;37952;51.938;15.480;2023-07-09T11:24:35;100333.59;;;27.08;33.94
51926;BME280;37952;51.938;15.480;2023-07-09T11:27:53;100343.27;;;27.39;33.65
51926;BME280;37952;51.938;15.480;2023-07-09T11:31:06;100331.22;;;27.74;33.28
51926;BME280;37952;51.938;15.480;2023-07-09T11:34:19;100330.29;;;28.13;32.68
51926;BME280;37952;51.938;15.480;2023-07-09T11:37:25;100320.86;;;28.54;31.89
51926;BME280;37952;51.938;15.480;2023-07-09T11:40:28;100319.64;;;28.88;31.72
51926;BME280;37952;51.938;15.480;2023-07-09T11:43:34;100318.19;;;29.05;31.06
51926;BME280;37952;51.938;15.480;2023-07-09T11:47:31;100318.23;;;29.12;31.33
51926;BME280;37952;51.938;15.480;2023-07-09T11:50:22;100320.40;;;29.34;30.79
51926;BME280;37952;51.938;15.480;2023-07-09T11:53:44;100318.37;;;29.48;30.47
51926;BME280;37952;51.938;15.480;2023-07-09T11:56:57;100317.85;;;29.55;30.35
51926;BME280;37952;51.938;15.480;2023-07-09T12:00:00;100312.45;;;29.68;30.09
51926;BME280;37952;51.938;15.480;2023-07-09T12:03:05;100306.05;;;29.81;29.81
51926;BME280;37952;51.938;15.480;2023-07-09T12:06:29;100315.54;;;29.92;29.55
51926;BME280;37952;51.938;15.480;2023-07-09T12:09:40;100315.88;;;30.00;29.27
51926;BME280;37952;51.938;15.480;2023-07-09T12:12:44;100304.36;;;30.14;29.17
51926;BME280;37952;51.938;15.480;2023-07-09T12:15:47;100295.56;;;30.42;28.99
51926;BME280;37952;51.938;15.480;2023-07-09T12:18:50;100293.02;;;30.56;28.71
51926;BME280;37952;51.938;15.480;2023-07-09T12:21:57;100290.37;;;30.59;28.61
51926;BME280;37952;51.938;15.480;2023-07-09T12:25:00;100286.55;;;30.70;28.57
51926;BME280;37952;51.938;15.480;2023-07-09T12:28:03;100281.05;;;30.76;28.45
51926;BME280;37952;51.938;15.480;2023-07-09T12:31:13;100281.04;;;30.81;28.31
51926;BME280;37952;51.938;15.480;2023-07-09T12:34:16;100280.55;;;30.99;27.74
51926;BME280;37952;51.938;15.480;2023-07-09T12:37:20;100276.18;;;31.09;27.55
51926;BME280;37952;51.938;15.480;2023-07-09T12:40:28;100276.72;;;31.10;27.61
51926;BME280;37952;51.938;15.480;2023-07-09T12:43:32;100279.48;;;31.20;27.49
51926;BME280;37952;51.938;15.480;2023-07-09T12:46:34;100269.77;;;31.36;27.21
51926;BME280;37952;51.938;15.480;2023-07-09T12:49:40;100277.07;;;31.48;26.65
51926;BME280;37952;51.938;15.480;2023-07-09T12:52:48;100261.40;;;31.38;26.99
51926;BME280;37952;51.938;15.480;2023-07-09T12:55:55;100260.05;;;31.34;26.76
51926;BME280;37952;51.938;15.480;2023-07-09T12:58:58;100256.13;;;31.43;26.47
51926;BME280;37952;51.938;15.480;2023-07-09T13:02:19;100251.50;;;31.43;26.53
51926;BME280;37952;51.938;15.480;2023-07-09T13:05:24;100244.33;;;31.46;26.74
51926;BME280;37952;51.938;15.480;2023-07-09T13:08:30;100240.45;;;31.44;26.43
51926;BME280;37952;51.938;15.480;2023-07-09T13:11:36;100244.81;;;31.50;26.38
51926;BME280;37952;51.938;15.480;2023-07-09T13:14:39;100240.16;;;31.64;26.44
51926;BME280;37952;51.938;15.480;2023-07-09T13:17:42;100239.23;;;31.77;26.31
51926;BME280;37952;51.938;15.480;2023-07-09T13:20:46;100239.46;;;31.92;26.11
51926;BME280;37952;51.938;15.480;2023-07-09T13:23:52;100237.38;;;31.86;25.73
51926;BME280;37952;51.938;15.480;2023-07-09T13:26:56;100243.17;;;31.83;25.85
51926;BME280;37952;51.938;15.480;2023-07-09T13:30:02;100236.07;;;31.81;25.70
51926;BME280;37952;51.938;15.480;2023-07-09T13:33:08;100239.00;;;31.95;25.74
51926;BME280;37952;51.938;15.480;2023-07-09T13:36:12;100240.88;;;32.15;25.30
51926;BME280;37952;51.938;15.480;2023-07-09T13:39:15;100237.13;;;32.27;25.38
51926;BME280;37952;51.938;15.480;2023-07-09T13:42:19;100238.06;;;32.35;25.08
51926;BME280;37952;51.938;15.480;2023-07-09T13:45:24;100231.30;;;32.50;25.10
51926;BME280;37952;51.938;15.480;2023-07-09T13:48:27;100225.25;;;32.68;24.82
51926;BME280;37952;51.938;15.480;2023-07-09T13:51:32;100219.64;;;32.71;24.85
51926;BME280;37952;51.938;15.480;2023-07-09T13:54:35;100220.35;;;32.85;24.68
51926;BME280;37952;51.938;15.480;2023-07-09T13:57:38;100210.43;;;33.05;24.45
51926;BME280;37952;51.938;15.480;2023-07-09T14:00:43;100213.56;;;33.37;24.39
51926;BME280;37952;51.938;15.480;2023-07-09T14:03:46;100212.61;;;33.60;23.93
51926;BME280;37952;51.938;15.480;2023-07-09T14:06:49;100208.07;;;33.73;23.92
51926;BME280;37952;51.938;15.480;2023-07-09T14:09:52;100201.63;;;33.84;23.61
51926;BME280;37952;51.938;15.480;2023-07-09T14:12:55;100213.72;;;33.88;23.04
51926;BME280;37952;51.938;15.480;2023-07-09T14:15:59;100215.88;;;33.75;23.11
51926;BME280;37952;51.938;15.480;2023-07-09T14:19:02;100209.48;;;33.54;22.96
51926;BME280;37952;51.938;15.480;2023-07-09T14:22:25;100195.37;;;33.35;23.01
51926;BME280;37952;51.938;15.480;2023-07-09T14:25:30;100202.23;;;33.42;23.22
51926;BME280;37952;51.938;15.480;2023-07-09T14:28:33;100201.66;;;33.69;22.88
51926;BME280;37952;51.938;15.480;2023-07-09T14:31:36;100197.02;;;33.99;22.68
51926;BME280;37952;51.938;15.480;2023-07-09T14:34:39;100200.64;;;34.23;22.52
51926;BME280;37952;51.938;15.480;2023-07-09T14:37:44;100199.71;;;34.44;22.28
51926;BME280;37952;51.938;15.480;2023-07-09T14:40:49;100204.38;;;34.53;22.18
51926;BME280;37952;51.938;15.480;2023-07-09T14:43:57;100202.81;;;34.46;22.06
51926;BME280;37952;51.938;15.480;2023-07-09T14:47:00;100194.45;;;34.37;21.75
51926;BME280;37952;51.938;15.480;2023-07-09T14:50:05;100207.31;;;34.22;21.52
51926;BME280;37952;51.938;15.480;2023-07-09T14:53:15;100199.58;;;34.00;21.70
51926;BME280;37952;51.938;15.480;2023-07-09T14:56:18;100197.42;;;34.13;21.85
51926;BME280;37952;51.938;15.480;2023-07-09T14:59:21;100190.30;;;34.27;21.78
51926;BME280;37952;51.938;15.480;2023-07-09T15:02:34;100180.75;;;34.38;21.78
51926;BME280;37952;51.938;15.480;2023-07-09T15:05:37;100185.30;;;34.40;22.08
51926;BME280;37952;51.938;15.480;2023-07-09T15:08:40;100185.52;;;34.40;21.86
51926;BME280;37952;51.938;15.480;2023-07-09T15:11:46;100187.09;;;34.37;22.13
51926;BME280;37952;51.938;15.480;2023-07-09T15:15:03;100187.38;;;34.42;22.07
51926;BME280;37952;51.938;15.480;2023-07-09T15:18:11;100188.27;;;34.50;21.97
51926;BME280;37952;51.938;15.480;2023-07-09T15:21:15;100189.95;;;34.56;21.59
51926;BME280;37952;51.938;15.480;2023-07-09T15:24:32;100186.10;;;34.56;21.34
51926;BME280;37952;51.938;15.480;2023-07-09T15:27:35;100188.77;;;34.73;21.18
51926;BME280;37952;51.938;15.480;2023-07-09T15:30:41;100189.34;;;34.80;20.83
51926;BME280;37952;51.938;15.480;2023-07-09T15:33:44;100178.11;;;34.76;20.66
51926;BME280;37952;51.938;15.480;2023-07-09T15:36:49;100170.30;;;34.70;20.74
51926;BME280;37952;51.938;15.480;2023-07-09T15:39:52;100172.80;;;34.55;19.96
51926;BME280;37952;51.938;15.480;2023-07-09T15:42:58;100184.08;;;34.25;19.83
51926;BME280;37952;51.938;15.480;2023-07-09T15:46:03;100154.44;;;33.66;20.18
51926;BME280;37952;51.938;15.480;2023-07-09T15:49:06;100173.23;;;33.86;20.42
51926;BME280;37952;51.938;15.480;2023-07-09T15:52:09;100167.81;;;33.99;20.31
51926;BME280;37952;51.938;15.480;2023-07-09T15:55:18;100166.38;;;34.05;20.19
51926;BME280;37952;51.938;15.480;2023-07-09T15:58:25;100160.13;;;34.26;20.18
51926;BME280;37952;51.938;15.480;2023-07-09T16:01:29;100158.63;;;34.50;19.89
51926;BME280;37952;51.938;15.480;2023-07-09T16:04:32;100156.23;;;34.75;19.88
51926;BME280;37952;51.938;15.480;2023-07-09T16:07:35;100141.23;;;34.87;19.66
51926;BME280;37952;51.938;15.480;2023-07-09T16:10:37;100149.23;;;34.98;19.75